createdAt,value
2023-02-07T00:00:41.427Z,177.11
2023-02-07T00:01:41.524Z,177.69
2023-02-07T00:02:41.401Z,179.38
2023-02-07T00:03:41.394Z,178.74
2023-02-07T00:04:41.394Z,176.34
2023-02-07T00:55:27.349Z,25.00
2023-02-07T00:56:28.208Z,25.00
2023-02-07T00:57:28.204Z,25.00
2023-02-07T00:58:28.187Z,25.00
2023-02-07T00:59:28.181Z,25.00
2023-02-07T01:00:28.203Z,25.00
2023-02-07T01:01:28.237Z,0.00
2023-02-07T01:02:28.158Z,0.00
2023-02-07T01:03:28.144Z,0.00
2023-02-07T01:04:28.174Z,0.00
2023-02-07T01:05:28.144Z,0.00
2023-02-07T01:06:28.186Z,0.00
2023-02-07T01:07:28.114Z,0.00
2023-02-07T01:08:28.108Z,0.84
2023-02-07T01:09:28.095Z,21.01
2023-02-07T01:10:28.103Z,25.00
2023-02-07T01:11:28.177Z,26.27
2023-02-07T01:12:28.069Z,25.81
2023-02-07T01:13:28.064Z,25.90
2023-02-07T01:14:28.058Z,25.00
2023-02-07T01:15:28.092Z,25.56
2023-02-07T01:16:28.080Z,26.51
2023-02-07T01:17:28.030Z,25.88
2023-02-07T01:18:28.020Z,27.21
2023-02-07T01:19:28.016Z,26.91
2023-02-07T01:20:28.001Z,25.14
2023-02-07T01:21:28.001Z,27.05
2023-02-07T01:22:27.988Z,25.07
2023-02-07T01:23:27.979Z,25.00
2023-02-07T01:24:27.970Z,29.73
2023-02-07T01:25:27.960Z,25.40
2023-02-07T01:26:27.955Z,25.22
2023-02-07T01:27:27.967Z,27.14
2023-02-07T01:28:27.935Z,25.00
2023-02-07T01:29:27.959Z,26.24
2023-02-07T01:30:27.922Z,27.41
2023-02-07T01:31:27.986Z,28.06
2023-02-07T01:32:27.905Z,27.42
2023-02-07T01:33:27.902Z,29.72
2023-02-07T01:34:27.899Z,27.29
2023-02-07T01:35:27.881Z,30.05
2023-02-07T01:36:27.873Z,27.39
2023-02-07T01:37:27.859Z,27.91
2023-02-07T01:38:27.852Z,26.39
2023-02-07T01:39:27.840Z,25.51
2023-02-07T01:40:27.832Z,27.42
2023-02-07T01:41:27.826Z,25.00
2023-02-07T01:42:27.825Z,29.35
2023-02-07T01:43:27.832Z,26.32
2023-02-07T01:44:27.795Z,27.81
2023-02-07T01:45:27.786Z,29.14
2023-02-07T01:46:27.808Z,30.39
2023-02-07T01:47:27.771Z,32.19
2023-02-07T01:48:27.759Z,29.03
2023-02-07T01:49:27.755Z,25.00
2023-02-07T01:50:27.744Z,30.74
2023-02-07T01:51:27.731Z,28.37
2023-02-07T01:52:27.731Z,31.28
2023-02-07T01:53:27.714Z,29.94
2023-02-07T01:54:27.710Z,26.50
2023-02-07T01:55:27.706Z,28.71
2023-02-07T01:56:31.869Z,28.09
2023-02-07T01:57:27.963Z,28.44
2023-02-07T01:58:27.803Z,28.40
2023-02-07T01:59:27.832Z,29.44
2023-02-07T02:00:27.796Z,29.28
2023-02-07T02:01:27.831Z,28.52
2023-02-07T02:02:27.864Z,29.00
2023-02-07T02:03:27.760Z,28.03
2023-02-07T02:04:27.751Z,26.06
2023-02-07T02:05:27.756Z,28.20
2023-02-07T02:06:27.740Z,26.93
2023-02-07T02:07:27.725Z,29.62
2023-02-07T02:08:27.721Z,28.06
2023-02-07T02:09:27.716Z,26.42
2023-02-07T02:10:27.706Z,28.82
2023-02-07T02:11:27.690Z,28.83
2023-02-07T02:12:27.682Z,29.49
2023-02-07T02:13:27.679Z,32.41
2023-02-07T02:14:27.670Z,27.30
2023-02-07T02:15:27.685Z,27.47
2023-02-07T02:16:27.655Z,28.00
2023-02-07T02:17:27.642Z,27.82
2023-02-07T02:18:27.628Z,29.92
2023-02-07T02:19:27.705Z,30.21
2023-02-07T02:20:27.639Z,26.56
2023-02-07T02:21:27.604Z,29.00
2023-02-07T02:22:27.603Z,32.88
2023-02-07T02:23:27.599Z,29.57
2023-02-07T02:24:27.590Z,29.66
2023-02-07T02:25:27.574Z,28.68
2023-02-07T02:26:27.568Z,30.70
2023-02-07T02:27:27.559Z,31.94
2023-02-07T02:28:27.545Z,32.02
2023-02-07T02:29:27.538Z,29.54
2023-02-07T02:30:27.602Z,29.07
2023-02-07T02:31:27.622Z,28.64
2023-02-07T02:32:27.515Z,25.00
2023-02-07T02:33:27.543Z,26.03
2023-02-07T02:34:27.505Z,31.55
2023-02-07T02:35:27.481Z,30.68
2023-02-07T02:36:27.476Z,29.33
2023-02-07T02:37:27.469Z,29.67
2023-02-07T02:38:27.467Z,28.48
2023-02-07T02:39:27.452Z,27.99
2023-02-07T02:40:27.445Z,30.13
2023-02-07T02:41:27.434Z,28.38
2023-02-07T02:42:27.457Z,27.50
2023-02-07T02:43:27.412Z,27.56
2023-02-07T02:44:27.415Z,26.36
2023-02-07T02:45:27.397Z,27.05
2023-02-07T02:46:27.424Z,28.60
2023-02-07T02:47:27.407Z,29.19
2023-02-07T02:48:27.377Z,29.02
2023-02-07T02:49:27.367Z,30.45
2023-02-07T02:50:27.358Z,30.77
2023-02-07T02:51:27.346Z,27.21
2023-02-07T02:52:40.506Z,27.00
2023-02-07T02:53:27.335Z,27.42
2023-02-07T02:54:27.333Z,28.89
2023-02-07T02:55:27.323Z,29.14
2023-02-07T02:56:27.304Z,29.74
2023-02-07T02:57:27.294Z,30.53
2023-02-07T02:58:27.288Z,33.36
2023-02-07T02:59:27.280Z,30.32
2023-02-07T03:00:27.281Z,33.71
2023-02-07T03:01:27.353Z,25.00
2023-02-07T03:02:27.251Z,31.79
2023-02-07T03:03:27.274Z,33.95
2023-02-07T03:04:27.238Z,29.68
2023-02-07T03:05:27.323Z,31.10
2023-02-07T03:06:27.221Z,28.33
2023-02-07T03:07:27.210Z,28.53
2023-02-07T03:08:27.203Z,34.67
2023-02-07T03:09:27.206Z,29.22
2023-02-07T03:10:27.225Z,27.27
2023-02-07T03:11:27.189Z,30.86
2023-02-07T03:12:27.175Z,27.94
2023-02-07T03:13:27.169Z,28.65
2023-02-07T03:14:27.166Z,28.66
2023-02-07T03:15:27.146Z,28.89
2023-02-07T03:16:27.207Z,30.80
2023-02-07T03:17:27.126Z,32.44
2023-02-07T03:18:27.121Z,29.74
2023-02-07T03:19:27.131Z,29.03
2023-02-07T03:20:27.101Z,30.03
2023-02-07T03:21:27.088Z,28.19
2023-02-07T03:22:27.087Z,29.74
2023-02-07T03:23:27.070Z,29.58
2023-02-07T03:24:27.064Z,27.63
2023-02-07T03:25:27.054Z,27.79
2023-02-07T03:26:27.045Z,27.98
2023-02-07T03:27:27.037Z,30.72
2023-02-07T03:28:27.033Z,29.33
2023-02-07T03:29:27.026Z,30.96
2023-02-07T03:30:27.064Z,32.17
2023-02-07T03:31:27.035Z,29.67
2023-02-07T03:32:26.991Z,28.51
2023-02-07T03:33:26.995Z,28.25
2023-02-07T03:34:26.980Z,27.84
2023-02-07T03:35:26.998Z,30.12
2023-02-07T03:36:26.959Z,31.28
2023-02-07T03:37:26.954Z,27.91
2023-02-07T03:38:26.936Z,31.27
2023-02-07T03:39:26.937Z,28.45
2023-02-07T03:40:26.935Z,26.11
2023-02-07T03:41:26.913Z,32.17
2023-02-07T03:42:26.915Z,32.74
2023-02-07T03:43:26.897Z,36.11
2023-02-07T03:44:26.899Z,30.69
2023-02-07T03:45:26.873Z,32.61
2023-02-07T03:46:26.905Z,31.10
2023-02-07T03:47:26.922Z,27.87
2023-02-07T03:48:26.868Z,34.66
2023-02-07T03:49:26.852Z,30.39
2023-02-07T03:50:26.840Z,28.54
2023-02-07T03:51:26.853Z,26.27
2023-02-07T03:52:26.825Z,30.45
2023-02-07T03:53:26.814Z,28.23
2023-02-07T03:54:26.803Z,31.94
2023-02-07T03:55:26.796Z,32.77
2023-02-07T03:56:26.788Z,27.98
2023-02-07T03:57:26.785Z,31.49
2023-02-07T03:58:26.772Z,28.26
2023-02-07T03:59:26.771Z,30.30
2023-02-07T04:00:26.751Z,29.03
2023-02-07T04:01:26.748Z,28.21
2023-02-07T04:02:26.821Z,26.24
2023-02-07T04:03:26.746Z,32.27
2023-02-07T04:04:26.722Z,31.54
2023-02-07T04:05:26.712Z,31.17
2023-02-07T04:06:26.703Z,33.63
2023-02-07T04:07:26.721Z,29.10
2023-02-07T04:08:27.360Z,29.28
2023-02-07T04:09:26.684Z,28.26
2023-02-07T04:10:26.675Z,31.86
2023-02-07T04:11:26.660Z,33.70
2023-02-07T04:12:26.655Z,31.15
2023-02-07T04:13:26.650Z,31.28
2023-02-07T04:14:26.639Z,32.51
2023-02-07T04:15:26.703Z,30.78
2023-02-07T04:16:26.673Z,29.73
2023-02-07T04:17:26.622Z,30.56
2023-02-07T04:18:26.600Z,32.05
2023-02-07T04:19:26.591Z,27.21
2023-02-07T04:20:26.584Z,30.86
2023-02-07T04:21:26.579Z,35.48
2023-02-07T04:22:26.564Z,32.53
2023-02-07T04:23:26.589Z,29.03
2023-02-07T04:24:26.552Z,32.95
2023-02-07T04:25:26.543Z,32.30
2023-02-07T04:26:26.536Z,31.70
2023-02-07T04:27:26.524Z,30.13
2023-02-07T04:28:26.515Z,30.03
2023-02-07T04:29:26.515Z,30.94
2023-02-07T04:30:26.519Z,33.32
2023-02-07T04:31:26.527Z,29.52
2023-02-07T04:32:26.484Z,31.65
2023-02-07T04:33:26.472Z,30.87
2023-02-07T04:34:26.474Z,29.32
2023-02-07T04:35:26.451Z,29.25
2023-02-07T04:36:26.442Z,31.73
2023-02-07T04:37:26.442Z,33.87
2023-02-07T04:38:26.445Z,33.90
2023-02-07T04:39:26.463Z,31.65
2023-02-07T04:40:26.408Z,33.01
2023-02-07T04:41:26.396Z,29.19
2023-02-07T04:42:26.392Z,32.30
2023-02-07T04:43:26.386Z,32.61
2023-02-07T04:44:26.373Z,30.88
2023-02-07T04:45:26.439Z,32.62
2023-02-07T04:46:26.357Z,30.26
2023-02-07T04:47:26.349Z,33.63
2023-02-07T04:48:26.341Z,32.93
2023-02-07T04:49:26.338Z,31.22
2023-02-07T04:50:26.326Z,34.12
2023-02-07T04:51:26.313Z,31.99
2023-02-07T04:52:26.305Z,33.76
2023-02-07T04:53:26.317Z,31.21
2023-02-07T04:54:26.289Z,32.71
2023-02-07T04:55:26.304Z,29.87
2023-02-07T04:56:26.269Z,32.30
2023-02-07T04:57:26.258Z,29.96
2023-02-07T04:58:26.260Z,32.50
2023-02-07T04:59:26.243Z,28.98
2023-02-07T05:00:26.290Z,33.02
2023-02-07T05:01:26.299Z,35.58
2023-02-07T05:02:26.222Z,32.24
2023-02-07T05:03:26.212Z,29.72
2023-02-07T05:04:26.285Z,32.79
2023-02-07T05:05:26.195Z,32.38
2023-02-07T05:06:26.188Z,30.78
2023-02-07T05:07:26.181Z,30.72
2023-02-07T05:08:26.428Z,30.92
2023-02-07T05:09:26.165Z,29.69
2023-02-07T05:10:26.208Z,31.60
2023-02-07T05:11:26.166Z,31.83
2023-02-07T05:12:26.136Z,30.00
2023-02-07T05:13:26.130Z,27.87
2023-02-07T05:14:26.119Z,31.81
2023-02-07T05:15:26.170Z,32.27
2023-02-07T05:16:26.165Z,30.79
2023-02-07T05:17:26.094Z,31.64
2023-02-07T05:18:26.085Z,28.53
2023-02-07T05:19:26.080Z,31.99
2023-02-07T05:20:26.074Z,30.38
2023-02-07T05:21:26.061Z,29.02
2023-02-07T05:22:26.051Z,26.98
2023-02-07T05:23:26.052Z,28.71
2023-02-07T05:24:26.049Z,28.77
2023-02-07T05:25:26.024Z,31.09
2023-02-07T05:26:26.018Z,29.97
2023-02-07T05:27:26.036Z,29.95
2023-02-07T05:28:26.006Z,28.49
2023-02-07T05:29:25.997Z,32.07
2023-02-07T05:30:25.991Z,28.62
2023-02-07T05:31:26.079Z,29.19
2023-02-07T05:32:26.705Z,30.32
2023-02-07T05:33:25.955Z,29.27
2023-02-07T05:34:25.952Z,28.60
2023-02-07T05:35:25.941Z,30.17
2023-02-07T05:36:25.934Z,31.27
2023-02-07T05:37:25.920Z,32.75
2023-02-07T05:38:25.918Z,30.23
2023-02-07T05:39:25.898Z,28.03
2023-02-07T05:40:26.046Z,30.13
2023-02-07T05:41:25.890Z,26.48
2023-02-07T05:42:25.876Z,26.29
2023-02-07T05:43:25.903Z,28.01
2023-02-07T05:44:25.858Z,28.88
2023-02-07T05:45:25.864Z,32.38
2023-02-07T05:46:25.884Z,33.03
2023-02-07T05:47:25.829Z,33.67
2023-02-07T05:48:25.820Z,31.05
2023-02-07T05:49:25.816Z,28.63
2023-02-07T05:50:25.807Z,25.00
2023-02-07T05:51:25.805Z,30.69
2023-02-07T05:52:25.788Z,31.23
2023-02-07T05:53:25.786Z,29.41
2023-02-07T05:54:25.770Z,30.08
2023-02-07T05:55:25.786Z,31.34
2023-02-07T05:56:25.759Z,28.51
2023-02-07T05:57:25.750Z,31.44
2023-02-07T05:58:25.736Z,35.57
2023-02-07T05:59:25.751Z,30.78
2023-02-07T06:00:25.744Z,26.56
2023-02-07T06:01:25.713Z,31.57
2023-02-07T06:02:25.756Z,32.38
2023-02-07T06:03:25.700Z,33.22
2023-02-07T06:04:25.682Z,32.74
2023-02-07T06:05:25.682Z,30.48
2023-02-07T06:06:25.903Z,29.21
2023-02-07T06:07:25.669Z,29.49
2023-02-07T06:08:25.652Z,33.42
2023-02-07T06:09:25.639Z,31.45
2023-02-07T06:10:25.626Z,33.73
2023-02-07T06:11:25.623Z,30.26
2023-02-07T06:12:25.613Z,33.79
2023-02-07T06:13:25.614Z,31.82
2023-02-07T06:14:25.597Z,31.09
2023-02-07T06:15:25.657Z,32.93
2023-02-07T06:16:25.580Z,36.61
2023-02-07T06:17:25.570Z,33.25
2023-02-07T06:18:25.573Z,33.14
2023-02-07T06:19:25.909Z,30.44
2023-02-07T06:20:25.547Z,29.86
2023-02-07T06:21:31.962Z,31.38
2023-02-07T06:22:26.007Z,31.75
2023-02-07T06:23:25.570Z,31.73
2023-02-07T06:24:25.920Z,31.98
2023-02-07T06:25:25.568Z,31.32
2023-02-07T06:26:25.914Z,31.67
2023-02-07T06:27:25.496Z,30.39
2023-02-07T06:28:25.474Z,30.77
2023-02-07T06:29:25.479Z,34.06
2023-02-07T06:30:25.912Z,33.89
2023-02-07T06:31:26.153Z,32.26
2023-02-07T06:32:25.450Z,32.78
2023-02-07T06:33:25.914Z,35.25
2023-02-07T06:34:25.438Z,34.61
2023-02-07T06:35:25.424Z,33.94
2023-02-07T06:36:25.417Z,35.86
2023-02-07T06:37:25.406Z,34.86
2023-02-07T06:38:25.400Z,34.45
2023-02-07T06:39:25.420Z,33.76
2023-02-07T06:40:25.400Z,35.72
2023-02-07T06:41:25.393Z,37.14
2023-02-07T06:42:25.414Z,39.06
2023-02-07T06:43:25.571Z,36.39
2023-02-07T06:44:25.892Z,35.03
2023-02-07T06:45:25.330Z,35.45
2023-02-07T06:46:25.394Z,38.04
2023-02-07T06:47:25.440Z,35.56
2023-02-07T06:48:26.295Z,34.96
2023-02-07T06:49:25.336Z,41.58
2023-02-07T06:50:25.300Z,43.11
2023-02-07T06:51:25.318Z,47.43
2023-02-07T06:52:25.426Z,50.34
2023-02-07T06:53:25.267Z,60.57
2023-02-07T06:54:25.265Z,58.97
2023-02-07T06:55:25.350Z,67.02
2023-02-07T06:56:25.422Z,64.49
2023-02-07T06:57:25.238Z,70.06
2023-02-07T06:58:25.580Z,75.99
2023-02-07T06:59:25.218Z,82.97
2023-02-07T07:00:25.207Z,84.91
2023-02-07T07:01:25.216Z,86.38
2023-02-07T07:02:25.241Z,90.46
2023-02-07T07:03:25.451Z,98.21
2023-02-07T07:04:25.168Z,104.61
2023-02-07T07:05:25.166Z,109.82
2023-02-07T07:06:25.156Z,119.52
2023-02-07T07:07:25.155Z,120.22
2023-02-07T07:08:25.457Z,120.29
2023-02-07T07:09:25.161Z,123.19
2023-02-07T07:10:25.283Z,128.27
2023-02-07T07:11:25.114Z,133.31
2023-02-07T07:12:25.468Z,130.42
2023-02-07T07:13:25.100Z,92.24
2023-02-07T07:14:25.090Z,63.55
2023-02-07T07:15:25.071Z,61.49
2023-02-07T07:16:25.990Z,72.39
2023-02-07T07:17:25.455Z,54.83
2023-02-07T07:18:25.082Z,41.43
2023-02-07T07:19:25.098Z,42.91
2023-02-07T07:20:25.070Z,25.00
2023-02-07T07:21:25.036Z,25.46
2023-02-07T07:22:25.664Z,30.92
2023-02-07T07:23:25.036Z,34.43
2023-02-07T07:24:25.039Z,32.58
2023-02-07T07:25:25.043Z,34.65
2023-02-07T07:26:25.019Z,37.49
2023-02-07T07:27:25.000Z,43.50
2023-02-07T07:28:24.966Z,61.04
2023-02-07T07:29:24.981Z,56.69
2023-02-07T07:30:24.958Z,38.57
2023-02-07T07:31:24.965Z,32.26
2023-02-07T07:32:33.695Z,30.92
2023-02-07T07:33:24.927Z,31.08
2023-02-07T07:34:24.940Z,23.40
2023-02-07T07:35:24.936Z,19.60
2023-02-07T07:36:24.894Z,18.93
2023-02-07T07:38:24.874Z,14.65
2023-02-07T07:39:24.941Z,12.59
2023-02-07T07:40:24.857Z,11.05
2023-02-07T07:41:24.858Z,13.14
2023-02-07T07:42:24.978Z,16.76
2023-02-07T07:43:24.836Z,35.17
2023-02-07T07:44:25.807Z,35.93
2023-02-07T07:45:24.943Z,33.15
2023-02-07T07:46:24.851Z,32.71
2023-02-07T07:47:24.791Z,33.76
2023-02-07T07:48:25.018Z,31.84
2023-02-07T07:49:24.773Z,31.60
2023-02-07T07:50:24.789Z,36.54
2023-02-07T07:51:24.990Z,39.31
2023-02-07T07:52:24.769Z,39.98
2023-02-07T07:53:24.946Z,43.86
2023-02-07T07:54:24.728Z,48.27
2023-02-07T07:55:25.439Z,49.72
2023-02-07T07:56:24.707Z,53.96
2023-02-07T07:57:24.706Z,54.03
2023-02-07T07:58:24.948Z,54.47
2023-02-07T07:59:24.688Z,57.55
2023-02-07T08:00:24.669Z,59.84
2023-02-07T08:01:24.696Z,61.78
2023-02-07T08:02:24.956Z,62.93
2023-02-07T08:03:24.952Z,64.85
2023-02-07T08:04:24.638Z,66.83
2023-02-07T08:05:24.636Z,67.08
2023-02-07T08:06:24.633Z,69.57
2023-02-07T08:07:24.633Z,70.34
2023-02-07T08:08:24.950Z,68.29
2023-02-07T08:09:24.623Z,68.87
2023-02-07T08:10:24.617Z,67.43
2023-02-07T08:11:24.602Z,71.81
2023-02-07T08:12:24.984Z,72.05
2023-02-07T08:13:27.522Z,71.11
2023-02-07T08:14:24.585Z,71.46
2023-02-07T08:15:24.540Z,72.46
2023-02-07T08:16:24.582Z,71.95
2023-02-07T08:17:25.946Z,73.46
2023-02-07T08:18:24.517Z,78.79
2023-02-07T08:19:24.519Z,71.59
2023-02-07T08:20:24.501Z,74.08
2023-02-07T08:21:24.489Z,73.72
2023-02-07T08:22:24.977Z,75.41
2023-02-07T08:23:24.506Z,70.17
2023-02-07T08:24:24.468Z,74.44
2023-02-07T08:25:24.470Z,73.07
2023-02-07T08:26:24.487Z,71.53
2023-02-07T08:27:24.470Z,71.17
2023-02-07T08:28:24.435Z,71.67
2023-02-07T08:29:24.422Z,71.21
2023-02-07T08:30:24.443Z,73.42
2023-02-07T08:31:24.505Z,72.92
2023-02-07T08:32:24.423Z,73.74
2023-02-07T08:33:24.462Z,72.88
2023-02-07T08:34:24.464Z,73.26
2023-02-07T08:35:24.378Z,73.65
2023-02-07T08:36:24.366Z,76.11
2023-02-07T08:37:24.355Z,69.94
2023-02-07T08:38:24.351Z,71.67
2023-02-07T08:39:24.505Z,71.93
2023-02-07T08:40:24.366Z,68.68
2023-02-07T08:41:24.337Z,72.60
2023-02-07T08:42:24.322Z,85.28
2023-02-07T08:43:24.507Z,82.70
2023-02-07T08:44:24.473Z,79.55
2023-02-07T08:45:24.388Z,85.38
2023-02-07T08:46:25.325Z,82.96
2023-02-07T08:47:24.289Z,88.36
2023-02-07T08:48:24.270Z,97.11
2023-02-07T08:49:24.464Z,97.83
2023-02-07T08:50:24.243Z,100.03
2023-02-07T08:51:24.464Z,104.11
2023-02-07T08:52:25.262Z,102.83
2023-02-07T08:53:24.470Z,105.51
2023-02-07T08:54:24.475Z,109.88
2023-02-07T08:55:24.223Z,106.42
2023-02-07T08:56:24.202Z,115.57
2023-02-07T08:57:24.183Z,112.97
2023-02-07T08:58:24.183Z,115.19
2023-02-07T08:59:24.486Z,111.91
2023-02-07T09:00:24.364Z,114.91
2023-02-07T09:01:25.247Z,118.44
2023-02-07T09:02:24.184Z,118.76
2023-02-07T09:03:24.146Z,120.60
2023-02-07T09:04:24.485Z,127.00
2023-02-07T09:05:24.111Z,126.05
2023-02-07T09:06:24.104Z,123.62
2023-02-07T09:07:24.102Z,129.83
2023-02-07T09:08:24.088Z,132.78
2023-02-07T09:09:24.477Z,131.61
2023-02-07T09:10:24.107Z,130.09
2023-02-07T09:11:24.129Z,135.47
2023-02-07T09:12:24.078Z,137.67
2023-02-07T09:13:24.431Z,140.17
2023-02-07T09:14:24.514Z,136.68
2023-02-07T09:15:24.037Z,142.66
2023-02-07T09:16:24.194Z,145.22
2023-02-07T09:17:24.040Z,144.75
2023-02-07T09:18:24.005Z,145.72
2023-02-07T09:19:23.996Z,145.05
2023-02-07T09:20:24.078Z,145.17
2023-02-07T09:21:24.000Z,150.73
2023-02-07T09:22:23.975Z,150.99
2023-02-07T09:23:23.982Z,156.08
2023-02-07T09:24:23.969Z,155.00
2023-02-07T09:25:23.982Z,152.58
2023-02-07T09:26:23.968Z,159.08
2023-02-07T09:27:23.943Z,159.45
2023-02-07T09:28:24.265Z,160.90
2023-02-07T09:29:23.993Z,161.98
2023-02-07T09:30:23.903Z,167.52
2023-02-07T09:31:23.969Z,165.03
2023-02-07T09:32:23.896Z,164.72
2023-02-07T09:33:23.920Z,164.50
2023-02-07T09:34:23.986Z,170.35
2023-02-07T09:35:23.858Z,171.36
2023-02-07T09:36:23.908Z,176.10
2023-02-07T09:37:23.844Z,177.83
2023-02-07T09:38:23.845Z,179.65
2023-02-07T09:39:23.993Z,181.53
2023-02-07T09:40:23.997Z,181.83
2023-02-07T09:41:23.811Z,187.75
2023-02-07T09:42:25.104Z,191.70
2023-02-07T09:43:24.000Z,187.46
2023-02-07T09:44:24.226Z,188.96
2023-02-07T09:45:24.084Z,192.55
2023-02-07T09:46:23.865Z,196.96
2023-02-07T09:47:23.804Z,196.84
2023-02-07T09:48:23.746Z,198.47
2023-02-07T09:49:24.022Z,204.20
2023-02-07T09:50:23.997Z,204.73
2023-02-07T09:51:23.726Z,205.24
2023-02-07T09:52:23.935Z,203.06
2023-02-07T09:53:23.713Z,203.16
2023-02-07T09:54:24.009Z,199.59
2023-02-07T09:55:23.686Z,204.83
2023-02-07T09:56:23.675Z,204.96
2023-02-07T09:57:23.685Z,208.87
2023-02-07T09:58:23.660Z,207.00
2023-02-07T09:59:24.063Z,209.92
2023-02-07T10:00:23.645Z,211.20
2023-02-07T10:01:23.668Z,216.47
2023-02-07T10:02:23.658Z,217.94
2023-02-07T10:03:23.998Z,219.44
2023-02-07T10:04:23.603Z,217.81
2023-02-07T10:05:23.999Z,218.51
2023-02-07T10:06:23.590Z,223.81
2023-02-07T10:07:23.578Z,226.06
2023-02-07T10:08:28.345Z,224.30
2023-02-07T10:09:23.559Z,224.94
2023-02-07T10:10:23.997Z,226.68
2023-02-07T10:11:23.556Z,228.68
2023-02-07T10:12:23.534Z,232.96
2023-02-07T10:13:23.531Z,238.16
2023-02-07T10:14:23.518Z,239.17
2023-02-07T10:15:24.047Z,239.50
2023-02-07T10:16:23.507Z,243.13
2023-02-07T10:17:31.100Z,242.35
2023-02-07T10:18:23.514Z,242.85
2023-02-07T10:19:23.483Z,244.34
2023-02-07T10:20:23.500Z,246.42
2023-02-07T10:21:23.455Z,248.23
2023-02-07T10:22:23.483Z,250.16
2023-02-07T10:23:23.473Z,249.38
2023-02-07T10:24:23.430Z,247.05
2023-02-07T10:25:23.527Z,248.24
2023-02-07T10:26:23.435Z,247.16
2023-02-07T10:27:23.406Z,241.27
2023-02-07T10:28:23.419Z,232.97
2023-02-07T10:29:23.392Z,241.63
2023-02-07T10:30:23.560Z,244.18
2023-02-07T10:31:23.511Z,246.83
2023-02-07T10:32:23.359Z,246.71
2023-02-07T10:33:23.347Z,248.04
2023-02-07T10:34:23.342Z,246.70
2023-02-07T10:35:23.535Z,248.32
2023-02-07T10:36:23.510Z,249.66
2023-02-07T10:37:23.320Z,247.28
2023-02-07T10:38:26.513Z,249.22
2023-02-07T10:39:24.288Z,249.53
2023-02-07T10:40:23.292Z,250.16
2023-02-07T10:41:23.515Z,250.78
2023-02-07T10:42:23.272Z,251.42
2023-02-07T10:43:23.641Z,247.87
2023-02-07T10:44:23.262Z,247.92
2023-02-07T10:45:23.255Z,247.25
2023-02-07T10:46:23.302Z,245.10
2023-02-07T10:47:23.535Z,247.39
2023-02-07T10:48:23.222Z,230.68
2023-02-07T10:49:26.019Z,51.57
2023-02-07T10:50:29.695Z,21.51
2023-02-07T10:51:23.521Z,52.96
2023-02-07T10:52:24.199Z,63.05
2023-02-07T10:53:23.179Z,80.65
2023-02-07T10:54:23.166Z,112.51
2023-02-07T10:55:23.165Z,169.20
2023-02-07T10:56:23.515Z,192.11
2023-02-07T10:57:23.142Z,198.34
2023-02-07T10:58:23.993Z,197.00
2023-02-07T10:59:23.126Z,199.15
2023-02-07T11:00:23.121Z,200.90
2023-02-07T11:01:23.600Z,203.86
2023-02-07T11:02:23.122Z,205.01
2023-02-07T11:03:26.758Z,206.14
2023-02-07T11:04:23.079Z,206.54
2023-02-07T11:05:23.079Z,207.25
2023-02-07T11:06:23.059Z,209.57
2023-02-07T11:07:23.061Z,212.96
2023-02-07T11:08:23.525Z,216.07
2023-02-07T11:09:23.047Z,218.73
2023-02-07T11:10:23.031Z,223.02
2023-02-07T11:11:23.023Z,228.21
2023-02-07T11:12:23.038Z,224.98
2023-02-07T11:13:23.014Z,225.30
2023-02-07T11:14:22.999Z,224.58
2023-02-07T11:15:22.994Z,224.08
2023-02-07T11:16:23.119Z,224.90
2023-02-07T11:17:23.983Z,228.48
2023-02-07T11:18:22.967Z,229.12
2023-02-07T11:19:22.987Z,229.53
2023-02-07T11:20:22.952Z,233.43
2023-02-07T11:21:23.030Z,232.62
2023-02-07T11:22:22.947Z,235.35
2023-02-07T11:23:22.933Z,235.32
2023-02-07T11:24:22.915Z,225.63
2023-02-07T11:25:22.920Z,238.19
2023-02-07T11:26:23.159Z,241.68
2023-02-07T11:27:22.893Z,246.08
2023-02-07T11:28:22.939Z,244.44
2023-02-07T11:29:22.872Z,248.21
2023-02-07T11:30:22.863Z,247.94
2023-02-07T11:31:23.098Z,237.21
2023-02-07T11:32:24.539Z,59.23
2023-02-07T11:33:23.103Z,0.00
2023-02-07T11:34:23.083Z,0.00
2023-02-07T11:35:23.215Z,52.73
2023-02-07T11:36:24.109Z,88.15
2023-02-07T11:37:23.052Z,110.62
2023-02-07T11:38:23.206Z,123.04
2023-02-07T11:39:23.057Z,129.47
2023-02-07T11:40:23.142Z,148.70
2023-02-07T11:41:23.019Z,170.40
2023-02-07T11:42:23.035Z,182.60
2023-02-07T11:43:23.007Z,186.77
2023-02-07T11:44:23.000Z,189.91
2023-02-07T11:45:23.002Z,192.18
2023-02-07T11:46:23.000Z,193.99
2023-02-07T11:47:23.055Z,199.09
2023-02-07T11:48:23.039Z,199.95
2023-02-07T11:49:22.959Z,197.85
2023-02-07T11:50:22.948Z,196.25
2023-02-07T11:51:22.961Z,201.12
2023-02-07T11:52:23.112Z,202.82
2023-02-07T11:53:22.919Z,205.06
2023-02-07T11:54:23.637Z,208.12
2023-02-07T11:55:22.961Z,210.72
2023-02-07T11:56:22.921Z,210.53
2023-02-07T11:57:23.041Z,213.02
2023-02-07T11:58:22.878Z,216.42
2023-02-07T11:59:22.874Z,217.45
2023-02-07T12:00:22.889Z,220.29
2023-02-07T12:01:22.845Z,221.88
2023-02-07T12:02:23.050Z,225.53
2023-02-07T12:03:22.847Z,227.33
2023-02-07T12:04:22.824Z,229.38
2023-02-07T12:05:22.895Z,229.61
2023-02-07T12:06:22.816Z,230.58
2023-02-07T12:07:23.075Z,234.59
2023-02-07T12:08:23.056Z,235.94
2023-02-07T12:09:22.790Z,235.77
2023-02-07T12:10:22.771Z,238.74
2023-02-07T12:11:22.779Z,240.64
2023-02-07T12:12:23.064Z,238.63
2023-02-07T12:13:23.065Z,243.76
2023-02-07T12:14:22.742Z,245.04
2023-02-07T12:15:22.732Z,249.32
2023-02-07T12:16:23.191Z,248.87
2023-02-07T12:17:22.757Z,247.16
2023-02-07T12:18:23.056Z,49.01
2023-02-07T12:19:22.724Z,0.00
2023-02-07T12:20:22.688Z,0.00
2023-02-07T12:21:22.679Z,1.20
2023-02-07T12:22:22.674Z,57.36
2023-02-07T12:23:41.266Z,68.58
2023-02-07T12:24:22.656Z,68.70
2023-02-07T12:25:22.641Z,48.38
2023-02-07T12:26:22.636Z,40.80
2023-02-07T12:27:22.636Z,42.57
2023-02-07T12:28:23.128Z,46.99
2023-02-07T12:29:22.606Z,65.17
2023-02-07T12:30:22.598Z,84.05
2023-02-07T12:31:22.742Z,108.50
2023-02-07T12:32:22.631Z,117.60
2023-02-07T12:33:23.066Z,119.94
2023-02-07T12:34:23.074Z,120.99
2023-02-07T12:35:22.561Z,125.92
2023-02-07T12:36:22.542Z,130.84
2023-02-07T12:37:22.537Z,133.44
2023-02-07T12:38:22.532Z,136.33
2023-02-07T12:39:22.587Z,140.37
2023-02-07T12:40:22.511Z,144.27
2023-02-07T12:41:22.548Z,147.51
2023-02-07T12:42:22.529Z,152.46
2023-02-07T12:43:22.527Z,154.89
2023-02-07T12:44:22.567Z,154.63
2023-02-07T12:45:22.487Z,157.75
2023-02-07T12:46:22.470Z,158.26
2023-02-07T12:47:22.613Z,155.98
2023-02-07T12:48:22.586Z,160.28
2023-02-07T12:49:22.577Z,165.41
2023-02-07T12:50:22.732Z,169.26
2023-02-07T12:51:22.413Z,170.17
2023-02-07T12:52:22.409Z,173.58
2023-02-07T12:53:22.615Z,176.63
2023-02-07T12:54:22.412Z,179.78
2023-02-07T12:55:22.436Z,180.60
2023-02-07T12:56:22.411Z,184.16
2023-02-07T12:57:22.368Z,184.56
2023-02-07T12:58:22.572Z,188.22
2023-02-07T12:59:22.573Z,178.10
2023-02-07T13:00:22.338Z,177.45
2023-02-07T13:01:22.401Z,188.52
2023-02-07T13:02:22.410Z,192.67
2023-02-07T13:03:22.569Z,192.47
2023-02-07T13:04:22.574Z,193.93
2023-02-07T13:05:22.309Z,195.67
2023-02-07T13:06:22.283Z,199.54
2023-02-07T13:07:22.276Z,199.28
2023-02-07T13:08:22.269Z,201.27
2023-02-07T13:09:22.581Z,201.49
2023-02-07T13:10:22.295Z,203.51
2023-02-07T13:11:22.265Z,204.39
2023-02-07T13:12:22.254Z,205.25
2023-02-07T13:13:22.609Z,205.67
2023-02-07T13:14:22.242Z,204.05
2023-02-07T13:15:22.240Z,204.20
2023-02-07T13:16:22.250Z,203.14
2023-02-07T13:17:22.222Z,203.49
2023-02-07T13:18:22.593Z,202.86
2023-02-07T13:19:22.183Z,201.51
2023-02-07T13:20:22.164Z,200.78
2023-02-07T13:21:22.152Z,198.74
2023-02-07T13:22:22.189Z,202.65
2023-02-07T13:23:22.743Z,203.84
2023-02-07T13:24:22.161Z,204.47
2023-02-07T13:25:22.121Z,204.19
2023-02-07T13:26:22.117Z,204.18
2023-02-07T13:27:22.115Z,204.04
2023-02-07T13:28:22.646Z,202.52
2023-02-07T13:29:22.133Z,198.10
2023-02-07T13:30:22.404Z,202.90
2023-02-07T13:31:22.229Z,202.73
2023-02-07T13:32:22.053Z,200.87
2023-02-07T13:33:22.042Z,203.34
2023-02-07T13:34:23.034Z,201.97
2023-02-07T13:35:22.019Z,201.94